Weather History for Hurlburt Field, FL

Change the Weather History Date:

Friday, November 1, 2013

  Actual Average Record
Temperature  
Mean Temperature 71 °F -  
Max Temperature 77 °F 73 °F 84 °F (1997)
Min Temperature 63 °F 54 °F 43 °F (2008)
Cooling Degree Days 6    
Growing Degree Days 21 (Base 50)    
Moisture  
Dew Point 69 °F    
Average Humidity 87    
Maximum Humidity 94    
Minimum Humidity 78    
Precipitation  
Precipitation 0.28 in - - ()
Sea Level Pressure  
Sea Level Pressure 29.83 in    
Wind  
Wind Speed 9 mph (WSW)    
Max Wind Speed 16 mph    
Max Gust Speed 25 mph    
Visibility 9 miles    
Events Rain    
Averages and records for this station are not official NWS values.
T = Trace of Precipitation, MM = Missing Value Source: NWS Daily Summary

Daily Weather History Graph

Daily Weather History Graph

Search for Another Location

Airport:

Trip Planner

Search our weather history database for the weather conditions in past years. The results will help you decide how hot, cold, wet, or windy it might be!

Date:

Astronomy

Nov. 01, 2013 Rise Set
Actual Time 7:01 AM CDT 5:58 PM CDT
Civil Twilight 6:36 AM CDT 6:23 PM CDT
Nautical Twilight 6:08 AM CDT 6:52 PM CDT
Astronomical Twilight 5:39 AM CDT 7:20 PM CDT
Moon 5:00 AM CDT (11/1) 4:46 PM CDT (11/1)
Length of Visible Light 11h 47m
Length of Day
10h 57m
Waning Crescent, 4% of the Moon is Illuminated
Nov 1
Waning Crescent
Nov 3
New
Nov 9
First Quarter
Nov 17
Full
Nov 25
Last Quarter

Hourly Weather History & Observations

Time (CDT) Temp. Dew Point Humidity Pressure Visibility Wind Dir Wind Speed Gust Speed Precip Events Conditions
12:58 AM 76.1 °F 70.5 °F 83% 29.88 in 10.0 mi South 8.1 mph - N/A   Mostly Cloudy
1:58 AM 76.5 °F 71.1 °F 83% 29.86 in 10.0 mi South 12.7 mph - N/A   Scattered Clouds
2:46 AM 77.0 °F 71.6 °F 83% 29.83 in 10.0 mi South 11.5 mph 18.4 mph N/A   Light Drizzle
2:58 AM 76.6 °F 71.2 °F 83% 29.84 in 10.0 mi South 9.2 mph - 0.00 in   Light Drizzle
3:13 AM 77.0 °F 71.6 °F 83% 29.82 in 10.0 mi SSW 10.4 mph - N/A Rain Light Rain
3:48 AM 75.2 °F 71.6 °F 89% 29.82 in 10.0 mi South 11.5 mph - N/A   Light Drizzle
3:49 AM 75.2 °F 71.6 °F 89% 29.82 in 10.0 mi South 10.4 mph - N/A   Scattered Clouds
3:56 AM 75.2 °F 71.6 °F 89% 29.81 in 10.0 mi South 10.4 mph - N/A   Light Drizzle
3:58 AM 75.2 °F 71.6 °F 89% 29.82 in 10.0 mi South 10.4 mph - 0.01 in   Light Drizzle
4:05 AM 77.0 °F 71.6 °F 83% 29.81 in 10.0 mi South 11.5 mph - N/A   Partly Cloudy
4:58 AM 76.5 °F 72.1 °F 86% 29.83 in 10.0 mi South 10.4 mph - 0.00 in   Mostly Cloudy
5:18 AM 77.0 °F 71.6 °F 83% 29.82 in 10.0 mi SSW 9.2 mph - N/A   Mostly Cloudy
5:48 AM 77.0 °F 71.6 °F 83% 29.82 in 10.0 mi SSW 8.1 mph - N/A   Overcast
5:58 AM 76.6 °F 72.3 °F 86% 29.83 in 10.0 mi SSW 6.9 mph - N/A   Overcast
6:53 AM 77.0 °F 71.6 °F 83% 29.82 in 10.0 mi South 10.4 mph - N/A   Mostly Cloudy
6:58 AM 76.5 °F 72.3 °F 87% 29.83 in 10.0 mi South 9.2 mph - N/A   Mostly Cloudy
7:03 AM 77.0 °F 71.6 °F 83% 29.82 in 10.0 mi SSW 9.2 mph - N/A   Mostly Cloudy
7:13 AM 77.0 °F 71.6 °F 83% 29.82 in 10.0 mi SSW 8.1 mph - N/A   Scattered Clouds
7:58 AM 76.8 °F 72.7 °F 87% 29.83 in 10.0 mi SSW 10.4 mph - N/A   Mostly Cloudy
8:38 AM 77.0 °F 73.4 °F 89% 29.82 in 10.0 mi South 8.1 mph - N/A   Mostly Cloudy
8:43 AM 77.0 °F 73.4 °F 89% 29.82 in 10.0 mi South 8.1 mph - N/A   Mostly Cloudy
8:58 AM 77.0 °F 73.4 °F 89% 29.84 in 10.0 mi SSW 6.9 mph - N/A   Mostly Cloudy
9:08 AM 77.0 °F 71.6 °F 83% 29.84 in 10.0 mi SSW 8.1 mph - N/A   Mostly Cloudy
9:10 AM 77.0 °F 71.6 °F 83% 29.84 in 10.0 mi SSW 9.2 mph - N/A   Light Drizzle
9:15 AM 77.0 °F 71.6 °F 83% 29.83 in 9.0 mi SSW 8.1 mph - N/A Rain Light Rain
9:20 AM 77.0 °F 73.4 °F 89% 29.83 in 6.0 mi SW 10.4 mph - N/A Rain Light Rain
9:25 AM 77.0 °F 73.4 °F 89% 29.83 in 2.5 mi SSW 8.1 mph - N/A Rain Light Rain
9:30 AM 77.0 °F 73.4 °F 89% 29.83 in 2.5 mi South 12.7 mph - N/A Rain Rain
9:35 AM 77.0 °F 73.4 °F 89% 29.83 in 2.5 mi SSW 9.2 mph - N/A Rain Heavy Rain
9:40 AM 75.2 °F 71.6 °F 89% 29.84 in 1.0 mi SSW 16.1 mph 23.0 mph N/A Rain Heavy Rain
9:45 AM 73.4 °F 69.8 °F 88% 29.84 in 1.2 mi SW 15.0 mph 25.3 mph N/A Rain Light Rain
9:50 AM 73.4 °F 69.8 °F 88% 29.84 in 4.0 mi SW 9.2 mph 25.3 mph N/A Rain Light Rain
9:55 AM 73.4 °F 71.6 °F 94% 29.83 in 9.0 mi SW 5.8 mph 24.2 mph N/A Rain Light Rain
9:56 AM 73.4 °F 71.6 °F 94% 29.84 in 9.0 mi SW 5.8 mph 24.2 mph N/A   Overcast
9:58 AM 73.4 °F 71.6 °F 94% 29.85 in 9.0 mi SW 6.9 mph 24.2 mph 0.21 in   Overcast
10:03 AM 73.4 °F 71.6 °F 94% 29.84 in 10.0 mi SW 5.8 mph - N/A   Mostly Cloudy
10:13 AM 73.4 °F 71.6 °F 94% 29.84 in 10.0 mi Variable 5.8 mph - N/A   Overcast
10:28 AM 75.2 °F 71.6 °F 89% 29.83 in 10.0 mi WSW 5.8 mph - N/A   Overcast
10:48 AM 75.2 °F 71.6 °F 89% 29.84 in 10.0 mi WSW 8.1 mph - N/A   Mostly Cloudy
10:56 AM 75.2 °F 71.6 °F 89% 29.84 in 7.0 mi WSW 5.8 mph - N/A Rain Light Rain
10:58 AM 75.2 °F 71.6 °F 89% 29.85 in 7.0 mi WSW 5.8 mph - 0.00 in Rain Light Rain
11:08 AM 75.2 °F 71.6 °F 89% 29.84 in 9.0 mi WNW 10.4 mph - N/A   Light Drizzle
11:09 AM 75.2 °F 71.6 °F 89% 29.84 in 10.0 mi WNW 10.4 mph - N/A   Mostly Cloudy
11:12 AM 75.2 °F 71.6 °F 89% 29.84 in 10.0 mi NW 8.1 mph - N/A   Light Drizzle
11:22 AM 75.2 °F 69.8 °F 83% 29.83 in 10.0 mi NNW 15.0 mph - N/A   Mostly Cloudy
11:33 AM 73.4 °F 68.0 °F 83% 29.84 in 10.0 mi NNW 16.1 mph - N/A   Mostly Cloudy
11:58 AM 73.6 °F 68.4 °F 84% 29.85 in 10.0 mi NNW 11.5 mph - 0.00 in   Mostly Cloudy
12:48 PM 75.2 °F 68.0 °F 78% 29.82 in 10.0 mi NNW 5.8 mph - N/A Rain Light Rain
12:58 PM 74.7 °F 68.4 °F 81% 29.83 in 10.0 mi NW 6.9 mph - 0.00 in Rain Light Rain
1:09 PM 73.4 °F 68.0 °F 83% 29.81 in 10.0 mi NNW 6.9 mph - N/A   Overcast
1:24 PM 75.2 °F 68.0 °F 78% 29.81 in 10.0 mi NW 8.1 mph - N/A   Light Drizzle
1:35 PM 75.2 °F 68.0 °F 78% 29.81 in 10.0 mi NW 6.9 mph - N/A   Overcast
1:43 PM 75.2 °F 68.0 °F 78% 29.80 in 10.0 mi NNW 8.1 mph - N/A Rain Light Rain
1:48 PM 75.2 °F 68.0 °F 78% 29.80 in 10.0 mi NNW 8.1 mph - N/A Rain Light Rain
1:54 PM 73.4 °F 68.0 °F 83% 29.80 in 10.0 mi NNW 6.9 mph - N/A   Overcast
1:58 PM 74.3 °F 67.5 °F 79% 29.81 in 10.0 mi NNW 6.9 mph - 0.00 in   Overcast
1:59 PM 73.4 °F 68.0 °F 83% 29.80 in 10.0 mi NNW 6.9 mph - N/A   Light Drizzle
2:12 PM 73.4 °F 68.0 °F 83% 29.80 in 10.0 mi NW 4.6 mph - N/A   Overcast
2:58 PM 73.2 °F 66.6 °F 80% 29.81 in 10.0 mi NW 10.4 mph - 0.00 in   Overcast
3:03 PM 73.4 °F 66.2 °F 78% 29.80 in 10.0 mi NNW 11.5 mph - N/A Rain Light Rain
3:33 PM 69.8 °F 66.2 °F 88% 29.79 in 10.0 mi North 9.2 mph - N/A   Overcast
3:47 PM 69.8 °F 66.2 °F 88% 29.79 in 10.0 mi North 8.1 mph - N/A   Light Drizzle
3:58 PM 68.9 °F 65.7 °F 89% 29.80 in 10.0 mi North 4.6 mph - 0.01 in   Light Drizzle
4:08 PM 68.0 °F 66.2 °F 94% 29.80 in 3.0 mi NW 3.5 mph - N/A Rain Rain
4:23 PM 68.0 °F 66.2 °F 94% 29.80 in 4.0 mi WNW 4.6 mph - N/A Rain Light Rain
4:33 PM 68.0 °F 66.2 °F 94% 29.80 in 5.0 mi Variable 4.6 mph - N/A Rain Light Rain
4:43 PM 68.0 °F 66.2 °F 94% 29.80 in 7.0 mi West 4.6 mph - N/A Rain Light Rain
4:48 PM 68.0 °F 66.2 °F 94% 29.79 in 8.0 mi SW 4.6 mph - N/A   Light Drizzle
4:58 PM 68.0 °F 64.4 °F 88% 29.80 in 9.0 mi WSW 4.6 mph - 0.05 in Rain Light Rain
5:05 PM 68.0 °F 64.4 °F 88% 29.79 in 10.0 mi West 4.6 mph - N/A   Overcast
5:58 PM 68.4 °F 65.1 °F 89% 29.80 in 10.0 mi WNW 5.8 mph - 0.00 in   Mostly Cloudy
6:58 PM 67.5 °F 64.0 °F 89% 29.83 in 10.0 mi West 3.5 mph - N/A   Mostly Cloudy
7:58 PM 67.1 °F 63.9 °F 89% 29.84 in 10.0 mi WNW 5.8 mph - N/A   Clear
8:58 PM 66.4 °F 63.5 °F 90% 29.86 in 10.0 mi WNW 5.8 mph - N/A   Overcast
9:58 PM 65.8 °F 63.0 °F 90% 29.87 in 10.0 mi NW 8.1 mph - N/A   Mostly Cloudy
10:58 PM 65.1 °F 61.9 °F 89% 29.89 in 10.0 mi NW 6.9 mph - N/A   Clear
11:58 PM 63.9 °F 59.7 °F 86% 29.89 in 10.0 mi NNW 5.8 mph - N/A   Mostly Cloudy